sensor_id;sensor_type;location;lat;lon;timestamp;P1;durP1;ratioP1;P2;durP2;ratioP2
12788;SDS011;6458;42.710;23.192;2023-04-12T00:00:07;13.87;;;10.83;;
12788;SDS011;6458;42.710;23.192;2023-04-12T00:02:36;11.30;;;10.10;;
12788;SDS011;6458;42.710;23.192;2023-04-12T00:05:03;12.13;;;10.53;;
12788;SDS011;6458;42.710;23.192;2023-04-12T00:07:30;13.10;;;11.13;;
12788;SDS011;6458;42.710;23.192;2023-04-12T00:09:57;13.77;;;10.97;;
12788;SDS011;6458;42.710;23.192;2023-04-12T00:12:25;14.10;;;11.17;;
12788;SDS011;6458;42.710;23.192;2023-04-12T00:14:52;14.53;;;11.87;;
12788;SDS011;6458;42.710;23.192;2023-04-12T00:17:19;15.13;;;11.30;;
12788;SDS011;6458;42.710;23.192;2023-04-12T00:19:45;13.87;;;11.27;;
12788;SDS011;6458;42.710;23.192;2023-04-12T00:22:14;13.17;;;10.03;;
12788;SDS011;6458;42.710;23.192;2023-04-12T00:24:41;14.10;;;10.83;;
12788;SDS011;6458;42.710;23.192;2023-04-12T00:27:08;12.57;;;9.87;;
12788;SDS011;6458;42.710;23.192;2023-04-12T00:29:36;15.00;;;10.47;;
12788;SDS011;6458;42.710;23.192;2023-04-12T00:32:03;15.80;;;11.03;;
12788;SDS011;6458;42.710;23.192;2023-04-12T00:34:30;16.17;;;11.10;;
12788;SDS011;6458;42.710;23.192;2023-04-12T00:36:57;17.80;;;11.80;;
12788;SDS011;6458;42.710;23.192;2023-04-12T00:39:24;15.43;;;12.00;;
12788;SDS011;6458;42.710;23.192;2023-04-12T00:41:51;14.00;;;11.13;;
12788;SDS011;6458;42.710;23.192;2023-04-12T00:44:21;15.97;;;11.53;;
12788;SDS011;6458;42.710;23.192;2023-04-12T00:46:49;16.20;;;11.13;;
12788;SDS011;6458;42.710;23.192;2023-04-12T00:49:16;15.63;;;10.60;;
12788;SDS011;6458;42.710;23.192;2023-04-12T00:51:43;13.73;;;10.50;;
12788;SDS011;6458;42.710;23.192;2023-04-12T00:54:10;13.73;;;10.97;;
12788;SDS011;6458;42.710;23.192;2023-04-12T00:56:37;13.67;;;10.07;;
12788;SDS011;6458;42.710;23.192;2023-04-12T00:59:04;18.83;;;13.70;;
12788;SDS011;6458;42.710;23.192;2023-04-12T01:01:31;16.13;;;14.27;;
12788;SDS011;6458;42.710;23.192;2023-04-12T01:04:00;13.63;;;10.80;;
12788;SDS011;6458;42.710;23.192;2023-04-12T01:06:33;16.77;;;11.47;;
12788;SDS011;6458;42.710;23.192;2023-04-12T01:09:05;13.63;;;11.37;;
12788;SDS011;6458;42.710;23.192;2023-04-12T01:11:37;13.93;;;10.53;;
12788;SDS011;6458;42.710;23.192;2023-04-12T01:14:04;15.30;;;10.80;;
12788;SDS011;6458;42.710;23.192;2023-04-12T01:16:33;12.23;;;10.00;;
12788;SDS011;6458;42.710;23.192;2023-04-12T01:19:03;13.33;;;10.67;;
12788;SDS011;6458;42.710;23.192;2023-04-12T01:21:34;14.37;;;10.40;;
12788;SDS011;6458;42.710;23.192;2023-04-12T01:24:15;12.60;;;10.57;;
12788;SDS011;6458;42.710;23.192;2023-04-12T01:26:46;13.03;;;10.43;;
12788;SDS011;6458;42.710;23.192;2023-04-12T01:29:15;13.80;;;10.33;;
12788;SDS011;6458;42.710;23.192;2023-04-12T01:31:45;16.07;;;12.17;;
12788;SDS011;6458;42.710;23.192;2023-04-12T01:34:14;16.73;;;11.50;;
12788;SDS011;6458;42.710;23.192;2023-04-12T01:36:42;15.30;;;11.10;;
12788;SDS011;6458;42.710;23.192;2023-04-12T01:39:10;14.47;;;11.63;;
12788;SDS011;6458;42.710;23.192;2023-04-12T01:41:38;15.87;;;11.27;;
12788;SDS011;6458;42.710;23.192;2023-04-12T01:44:05;14.20;;;11.30;;
12788;SDS011;6458;42.710;23.192;2023-04-12T01:46:34;15.07;;;11.00;;
12788;SDS011;6458;42.710;23.192;2023-04-12T01:49:02;17.10;;;11.43;;
12788;SDS011;6458;42.710;23.192;2023-04-12T01:51:33;17.07;;;11.53;;
12788;SDS011;6458;42.710;23.192;2023-04-12T01:54:01;16.73;;;11.53;;
12788;SDS011;6458;42.710;23.192;2023-04-12T01:56:35;13.10;;;11.17;;
12788;SDS011;6458;42.710;23.192;2023-04-12T01:59:02;16.00;;;11.83;;
12788;SDS011;6458;42.710;23.192;2023-04-12T02:01:29;15.73;;;13.00;;
12788;SDS011;6458;42.710;23.192;2023-04-12T02:03:57;15.20;;;11.53;;
12788;SDS011;6458;42.710;23.192;2023-04-12T02:06:25;16.77;;;12.27;;
12788;SDS011;6458;42.710;23.192;2023-04-12T02:08:55;15.90;;;11.13;;
12788;SDS011;6458;42.710;23.192;2023-04-12T02:11:22;14.00;;;11.37;;
12788;SDS011;6458;42.710;23.192;2023-04-12T02:13:49;16.03;;;11.70;;
12788;SDS011;6458;42.710;23.192;2023-04-12T02:16:16;18.43;;;13.03;;
12788;SDS011;6458;42.710;23.192;2023-04-12T02:18:44;17.07;;;11.80;;
12788;SDS011;6458;42.710;23.192;2023-04-12T02:21:13;16.87;;;11.30;;
12788;SDS011;6458;42.710;23.192;2023-04-12T02:23:40;17.93;;;11.90;;
12788;SDS011;6458;42.710;23.192;2023-04-12T02:26:08;13.73;;;11.27;;
12788;SDS011;6458;42.710;23.192;2023-04-12T02:28:35;15.37;;;11.40;;
12788;SDS011;6458;42.710;23.192;2023-04-12T02:31:03;17.47;;;11.17;;
12788;SDS011;6458;42.710;23.192;2023-04-12T02:33:29;17.53;;;11.03;;
12788;SDS011;6458;42.710;23.192;2023-04-12T02:35:56;14.63;;;10.63;;
12788;SDS011;6458;42.710;23.192;2023-04-12T02:38:27;13.93;;;10.30;;
12788;SDS011;6458;42.710;23.192;2023-04-12T02:40:54;15.70;;;10.57;;
12788;SDS011;6458;42.710;23.192;2023-04-12T02:43:21;15.13;;;10.80;;
12788;SDS011;6458;42.710;23.192;2023-04-12T02:45:48;16.13;;;13.07;;
12788;SDS011;6458;42.710;23.192;2023-04-12T02:48:15;15.23;;;12.67;;
12788;SDS011;6458;42.710;23.192;2023-04-12T02:50:42;17.27;;;12.33;;
12788;SDS011;6458;42.710;23.192;2023-04-12T02:53:08;16.50;;;12.93;;
12788;SDS011;6458;42.710;23.192;2023-04-12T02:55:36;22.70;;;15.90;;
12788;SDS011;6458;42.710;23.192;2023-04-12T02:58:04;20.07;;;13.77;;
12788;SDS011;6458;42.710;23.192;2023-04-12T03:00:31;22.00;;;15.00;;
12788;SDS011;6458;42.710;23.192;2023-04-12T03:02:58;22.90;;;15.50;;
12788;SDS011;6458;42.710;23.192;2023-04-12T03:05:25;21.13;;;15.33;;
12788;SDS011;6458;42.710;23.192;2023-04-12T03:07:52;22.90;;;15.87;;
12788;SDS011;6458;42.710;23.192;2023-04-12T03:10:19;21.20;;;15.27;;
12788;SDS011;6458;42.710;23.192;2023-04-12T03:12:47;20.77;;;14.47;;
12788;SDS011;6458;42.710;23.192;2023-04-12T03:15:14;20.27;;;13.90;;
12788;SDS011;6458;42.710;23.192;2023-04-12T03:17:41;20.60;;;14.97;;
12788;SDS011;6458;42.710;23.192;2023-04-12T03:20:09;21.87;;;14.97;;
12788;SDS011;6458;42.710;23.192;2023-04-12T03:22:36;22.97;;;17.03;;
12788;SDS011;6458;42.710;23.192;2023-04-12T03:25:03;21.27;;;15.00;;
12788;SDS011;6458;42.710;23.192;2023-04-12T03:27:29;20.23;;;14.77;;
12788;SDS011;6458;42.710;23.192;2023-04-12T03:29:58;20.90;;;14.57;;
12788;SDS011;6458;42.710;23.192;2023-04-12T03:32:25;20.20;;;15.07;;
12788;SDS011;6458;42.710;23.192;2023-04-12T03:34:51;19.83;;;14.70;;
12788;SDS011;6458;42.710;23.192;2023-04-12T03:37:19;18.17;;;14.10;;
12788;SDS011;6458;42.710;23.192;2023-04-12T03:39:46;19.97;;;14.87;;
12788;SDS011;6458;42.710;23.192;2023-04-12T03:42:13;18.77;;;15.03;;
12788;SDS011;6458;42.710;23.192;2023-04-12T03:44:39;18.47;;;15.47;;
12788;SDS011;6458;42.710;23.192;2023-04-12T03:47:13;19.73;;;15.37;;
12788;SDS011;6458;42.710;23.192;2023-04-12T03:49:40;18.83;;;15.13;;
12788;SDS011;6458;42.710;23.192;2023-04-12T03:52:07;21.10;;;15.33;;
12788;SDS011;6458;42.710;23.192;2023-04-12T03:54:35;20.27;;;13.83;;
12788;SDS011;6458;42.710;23.192;2023-04-12T03:57:03;20.23;;;15.33;;
12788;SDS011;6458;42.710;23.192;2023-04-12T03:59:30;20.70;;;15.50;;
12788;SDS011;6458;42.710;23.192;2023-04-12T04:01:57;20.30;;;14.27;;
12788;SDS011;6458;42.710;23.192;2023-04-12T04:04:27;21.70;;;15.83;;
12788;SDS011;6458;42.710;23.192;2023-04-12T04:06:54;22.70;;;16.87;;
12788;SDS011;6458;42.710;23.192;2023-04-12T04:09:21;17.37;;;13.33;;
12788;SDS011;6458;42.710;23.192;2023-04-12T04:11:48;22.43;;;15.60;;
12788;SDS011;6458;42.710;23.192;2023-04-12T04:14:15;20.40;;;15.60;;
12788;SDS011;6458;42.710;23.192;2023-04-12T04:16:44;21.40;;;16.40;;
12788;SDS011;6458;42.710;23.192;2023-04-12T04:19:11;19.93;;;14.43;;
12788;SDS011;6458;42.710;23.192;2023-04-12T04:21:39;19.97;;;15.60;;
12788;SDS011;6458;42.710;23.192;2023-04-12T04:24:08;23.63;;;14.80;;
12788;SDS011;6458;42.710;23.192;2023-04-12T04:26:36;20.47;;;15.73;;
12788;SDS011;6458;42.710;23.192;2023-04-12T04:29:03;22.20;;;15.70;;
12788;SDS011;6458;42.710;23.192;2023-04-12T04:31:30;20.10;;;15.17;;
12788;SDS011;6458;42.710;23.192;2023-04-12T04:33:58;16.90;;;13.93;;
12788;SDS011;6458;42.710;23.192;2023-04-12T04:36:25;21.63;;;15.40;;
12788;SDS011;6458;42.710;23.192;2023-04-12T04:38:54;18.70;;;13.17;;
12788;SDS011;6458;42.710;23.192;2023-04-12T04:41:21;18.33;;;13.83;;
12788;SDS011;6458;42.710;23.192;2023-04-12T04:43:48;16.37;;;13.10;;
12788;SDS011;6458;42.710;23.192;2023-04-12T04:46:15;17.83;;;12.83;;
12788;SDS011;6458;42.710;23.192;2023-04-12T04:48:45;14.87;;;11.40;;
12788;SDS011;6458;42.710;23.192;2023-04-12T04:51:12;17.60;;;13.67;;
12788;SDS011;6458;42.710;23.192;2023-04-12T04:53:39;15.57;;;11.80;;
12788;SDS011;6458;42.710;23.192;2023-04-12T04:56:09;16.83;;;12.57;;
12788;SDS011;6458;42.710;23.192;2023-04-12T04:58:36;14.27;;;11.70;;
12788;SDS011;6458;42.710;23.192;2023-04-12T05:01:03;14.37;;;11.53;;
12788;SDS011;6458;42.710;23.192;2023-04-12T05:03:31;11.93;;;9.40;;
12788;SDS011;6458;42.710;23.192;2023-04-12T05:05:58;15.17;;;10.50;;
12788;SDS011;6458;42.710;23.192;2023-04-12T05:08:25;13.07;;;10.77;;
12788;SDS011;6458;42.710;23.192;2023-04-12T05:10:53;12.00;;;10.00;;
12788;SDS011;6458;42.710;23.192;2023-04-12T05:13:21;11.47;;;9.67;;
12788;SDS011;6458;42.710;23.192;2023-04-12T05:15:48;9.50;;;8.20;;
12788;SDS011;6458;42.710;23.192;2023-04-12T05:18:15;10.73;;;8.67;;
12788;SDS011;6458;42.710;23.192;2023-04-12T05:20:43;8.77;;;7.87;;
12788;SDS011;6458;42.710;23.192;2023-04-12T05:23:10;10.77;;;8.23;;
12788;SDS011;6458;42.710;23.192;2023-04-12T05:25:42;8.70;;;7.90;;
12788;SDS011;6458;42.710;23.192;2023-04-12T05:28:10;8.40;;;7.60;;
12788;SDS011;6458;42.710;23.192;2023-04-12T05:30:39;8.47;;;7.67;;
12788;SDS011;6458;42.710;23.192;2023-04-12T05:33:06;9.33;;;7.77;;
12788;SDS011;6458;42.710;23.192;2023-04-12T05:35:33;8.20;;;7.30;;
12788;SDS011;6458;42.710;23.192;2023-04-12T05:38:00;7.60;;;6.90;;
12788;SDS011;6458;42.710;23.192;2023-04-12T05:40:27;6.40;;;5.83;;
12788;SDS011;6458;42.710;23.192;2023-04-12T05:42:55;6.70;;;6.10;;
12788;SDS011;6458;42.710;23.192;2023-04-12T05:45:22;8.57;;;6.33;;
12788;SDS011;6458;42.710;23.192;2023-04-12T05:47:50;6.50;;;5.67;;
12788;SDS011;6458;42.710;23.192;2023-04-12T05:50:17;7.50;;;6.77;;
12788;SDS011;6458;42.710;23.192;2023-04-12T05:52:44;7.43;;;6.57;;
12788;SDS011;6458;42.710;23.192;2023-04-12T05:55:12;6.83;;;6.13;;
12788;SDS011;6458;42.710;23.192;2023-04-12T05:57:40;6.23;;;5.70;;
12788;SDS011;6458;42.710;23.192;2023-04-12T06:00:07;7.13;;;6.53;;
12788;SDS011;6458;42.710;23.192;2023-04-12T06:02:37;7.20;;;6.40;;
12788;SDS011;6458;42.710;23.192;2023-04-12T06:05:06;7.30;;;6.60;;
12788;SDS011;6458;42.710;23.192;2023-04-12T06:07:33;8.50;;;7.50;;
12788;SDS011;6458;42.710;23.192;2023-04-12T06:10:01;8.37;;;6.57;;
12788;SDS011;6458;42.710;23.192;2023-04-12T06:12:27;7.23;;;6.53;;
12788;SDS011;6458;42.710;23.192;2023-04-12T06:14:54;8.47;;;7.20;;
12788;SDS011;6458;42.710;23.192;2023-04-12T06:17:21;6.73;;;6.13;;
12788;SDS011;6458;42.710;23.192;2023-04-12T06:19:47;6.37;;;5.77;;
12788;SDS011;6458;42.710;23.192;2023-04-12T06:22:16;6.60;;;6.00;;
12788;SDS011;6458;42.710;23.192;2023-04-12T06:24:42;6.63;;;6.00;;
12788;SDS011;6458;42.710;23.192;2023-04-12T06:27:09;7.10;;;6.40;;
12788;SDS011;6458;42.710;23.192;2023-04-12T06:29:36;6.00;;;5.50;;
12788;SDS011;6458;42.710;23.192;2023-04-12T06:32:03;5.73;;;5.23;;
12788;SDS011;6458;42.710;23.192;2023-04-12T06:34:29;5.90;;;5.40;;
12788;SDS011;6458;42.710;23.192;2023-04-12T06:36:56;5.07;;;4.77;;
12788;SDS011;6458;42.710;23.192;2023-04-12T06:39:25;5.97;;;5.47;;
12788;SDS011;6458;42.710;23.192;2023-04-12T06:41:52;5.93;;;5.50;;
12788;SDS011;6458;42.710;23.192;2023-04-12T06:44:21;5.17;;;4.80;;
12788;SDS011;6458;42.710;23.192;2023-04-12T06:46:48;5.10;;;4.57;;
12788;SDS011;6458;42.710;23.192;2023-04-12T06:49:15;5.27;;;4.97;;
12788;SDS011;6458;42.710;23.192;2023-04-12T06:51:42;5.87;;;5.23;;
12788;SDS011;6458;42.710;23.192;2023-04-12T06:54:09;5.23;;;4.93;;
12788;SDS011;6458;42.710;23.192;2023-04-12T06:56:38;5.80;;;5.20;;
12788;SDS011;6458;42.710;23.192;2023-04-12T06:59:05;5.10;;;4.80;;
12788;SDS011;6458;42.710;23.192;2023-04-12T07:01:31;5.47;;;5.07;;
12788;SDS011;6458;42.710;23.192;2023-04-12T07:03:58;5.20;;;4.70;;
12788;SDS011;6458;42.710;23.192;2023-04-12T07:06:26;5.30;;;5.00;;
12788;SDS011;6458;42.710;23.192;2023-04-12T07:08:52;6.10;;;5.60;;
12788;SDS011;6458;42.710;23.192;2023-04-12T07:11:19;6.07;;;5.50;;
12788;SDS011;6458;42.710;23.192;2023-04-12T07:13:48;5.90;;;5.40;;
12788;SDS011;6458;42.710;23.192;2023-04-12T07:16:15;5.60;;;5.30;;
12788;SDS011;6458;42.710;23.192;2023-04-12T07:18:42;5.63;;;5.23;;
12788;SDS011;6458;42.710;23.192;2023-04-12T07:21:08;6.17;;;5.77;;
12788;SDS011;6458;42.710;23.192;2023-04-12T07:23:38;6.10;;;5.77;;
12788;SDS011;6458;42.710;23.192;2023-04-12T07:26:05;6.13;;;5.73;;
12788;SDS011;6458;42.710;23.192;2023-04-12T07:28:31;5.70;;;5.27;;
12788;SDS011;6458;42.710;23.192;2023-04-12T07:31:03;5.27;;;4.97;;
12788;SDS011;6458;42.710;23.192;2023-04-12T07:33:29;4.60;;;4.40;;
12788;SDS011;6458;42.710;23.192;2023-04-12T07:35:56;4.83;;;4.60;;
12788;SDS011;6458;42.710;23.192;2023-04-12T07:38:24;4.27;;;4.07;;
12788;SDS011;6458;42.710;23.192;2023-04-12T07:40:51;4.00;;;3.70;;
12788;SDS011;6458;42.710;23.192;2023-04-12T07:43:18;4.20;;;3.90;;
12788;SDS011;6458;42.710;23.192;2023-04-12T07:45:45;4.03;;;3.73;;
12788;SDS011;6458;42.710;23.192;2023-04-12T07:48:13;3.90;;;3.70;;
12788;SDS011;6458;42.710;23.192;2023-04-12T07:50:40;3.90;;;3.70;;
12788;SDS011;6458;42.710;23.192;2023-04-12T07:53:19;3.53;;;3.33;;
12788;SDS011;6458;42.710;23.192;2023-04-12T07:55:46;3.70;;;3.50;;
12788;SDS011;6458;42.710;23.192;2023-04-12T07:58:12;3.53;;;3.33;;
12788;SDS011;6458;42.710;23.192;2023-04-12T08:00:39;3.50;;;3.30;;
12788;SDS011;6458;42.710;23.192;2023-04-12T08:03:06;3.43;;;3.33;;
12788;SDS011;6458;42.710;23.192;2023-04-12T08:05:34;3.63;;;3.53;;
12788;SDS011;6458;42.710;23.192;2023-04-12T08:08:01;3.53;;;3.33;;
12788;SDS011;6458;42.710;23.192;2023-04-12T08:10:28;3.10;;;2.90;;
12788;SDS011;6458;42.710;23.192;2023-04-12T08:12:55;3.60;;;3.40;;
12788;SDS011;6458;42.710;23.192;2023-04-12T08:15:22;3.20;;;3.10;;
12788;SDS011;6458;42.710;23.192;2023-04-12T08:17:48;3.00;;;2.80;;
12788;SDS011;6458;42.710;23.192;2023-04-12T08:20:15;3.23;;;3.00;;
12788;SDS011;6458;42.710;23.192;2023-04-12T08:22:43;3.00;;;2.80;;
12788;SDS011;6458;42.710;23.192;2023-04-12T08:25:10;2.83;;;2.63;;
12788;SDS011;6458;42.710;23.192;2023-04-12T08:27:38;2.57;;;2.47;;
12788;SDS011;6458;42.710;23.192;2023-04-12T08:30:05;2.97;;;2.77;;
12788;SDS011;6458;42.710;23.192;2023-04-12T08:32:32;2.40;;;2.30;;
12788;SDS011;6458;42.710;23.192;2023-04-12T08:34:58;2.80;;;2.60;;
12788;SDS011;6458;42.710;23.192;2023-04-12T08:37:26;2.57;;;2.47;;
12788;SDS011;6458;42.710;23.192;2023-04-12T08:39:54;2.67;;;2.57;;
12788;SDS011;6458;42.710;23.192;2023-04-12T08:42:21;2.90;;;2.80;;
12788;SDS011;6458;42.710;23.192;2023-04-12T08:44:48;2.80;;;2.70;;
12788;SDS011;6458;42.710;23.192;2023-04-12T08:47:16;4.20;;;2.30;;
12788;SDS011;6458;42.710;23.192;2023-04-12T08:49:42;3.47;;;2.60;;
12788;SDS011;6458;42.710;23.192;2023-04-12T08:52:09;2.83;;;2.70;;
12788;SDS011;6458;42.710;23.192;2023-04-12T08:54:36;2.57;;;2.37;;
12788;SDS011;6458;42.710;23.192;2023-04-12T08:57:05;2.73;;;2.53;;
12788;SDS011;6458;42.710;23.192;2023-04-12T08:59:33;4.00;;;2.60;;
12788;SDS011;6458;42.710;23.192;2023-04-12T09:02:02;2.80;;;2.60;;
12788;SDS011;6458;42.710;23.192;2023-04-12T09:04:29;2.63;;;2.43;;
12788;SDS011;6458;42.710;23.192;2023-04-12T09:06:55;2.90;;;2.80;;
12788;SDS011;6458;42.710;23.192;2023-04-12T09:12:07;2.90;;;2.80;;
12788;SDS011;6458;42.710;23.192;2023-04-12T09:14:33;2.60;;;2.40;;
12788;SDS011;6458;42.710;23.192;2023-04-12T09:17:00;2.83;;;2.57;;
12788;SDS011;6458;42.710;23.192;2023-04-12T09:19:30;2.77;;;2.67;;
12788;SDS011;6458;42.710;23.192;2023-04-12T09:21:57;2.17;;;2.17;;
12788;SDS011;6458;42.710;23.192;2023-04-12T09:24:23;2.10;;;2.10;;
12788;SDS011;6458;42.710;23.192;2023-04-12T09:26:55;2.60;;;2.40;;
12788;SDS011;6458;42.710;23.192;2023-04-12T09:29:28;2.43;;;2.23;;
12788;SDS011;6458;42.710;23.192;2023-04-12T09:31:55;3.50;;;2.37;;
12788;SDS011;6458;42.710;23.192;2023-04-12T09:34:22;2.90;;;2.70;;
12788;SDS011;6458;42.710;23.192;2023-04-12T09:36:49;2.47;;;2.30;;
12788;SDS011;6458;42.710;23.192;2023-04-12T09:39:15;2.40;;;2.30;;
12788;SDS011;6458;42.710;23.192;2023-04-12T09:41:42;2.50;;;2.30;;
12788;SDS011;6458;42.710;23.192;2023-04-12T09:44:09;2.40;;;2.30;;
12788;SDS011;6458;42.710;23.192;2023-04-12T09:46:54;3.13;;;2.47;;
12788;SDS011;6458;42.710;23.192;2023-04-12T09:49:34;1.93;;;1.83;;
12788;SDS011;6458;42.710;23.192;2023-04-12T09:52:00;1.33;;;1.33;;
12788;SDS011;6458;42.710;23.192;2023-04-12T09:54:27;1.70;;;1.60;;
12788;SDS011;6458;42.710;23.192;2023-04-12T09:56:54;1.40;;;1.40;;
12788;SDS011;6458;42.710;23.192;2023-04-12T09:59:21;1.40;;;1.40;;
12788;SDS011;6458;42.710;23.192;2023-04-12T10:01:53;2.00;;;1.30;;
12788;SDS011;6458;42.710;23.192;2023-04-12T10:04:20;1.50;;;1.50;;
12788;SDS011;6458;42.710;23.192;2023-04-12T10:06:47;1.47;;;1.40;;
12788;SDS011;6458;42.710;23.192;2023-04-12T10:09:14;1.30;;;1.30;;
12788;SDS011;6458;42.710;23.192;2023-04-12T10:11:41;1.47;;;1.40;;
12788;SDS011;6458;42.710;23.192;2023-04-12T10:14:10;1.37;;;1.37;;
12788;SDS011;6458;42.710;23.192;2023-04-12T10:16:38;1.63;;;1.53;;
12788;SDS011;6458;42.710;23.192;2023-04-12T10:19:07;1.60;;;1.50;;
12788;SDS011;6458;42.710;23.192;2023-04-12T10:21:34;1.40;;;1.40;;
12788;SDS011;6458;42.710;23.192;2023-04-12T10:24:00;1.27;;;1.27;;
12788;SDS011;6458;42.710;23.192;2023-04-12T10:26:27;1.50;;;1.40;;
12788;SDS011;6458;42.710;23.192;2023-04-12T10:31:36;1.50;;;1.40;;
12788;SDS011;6458;42.710;23.192;2023-04-12T10:34:02;1.50;;;1.40;;
12788;SDS011;6458;42.710;23.192;2023-04-12T10:39:16;1.40;;;1.40;;
12788;SDS011;6458;42.710;23.192;2023-04-12T10:41:55;2.20;;;1.30;;
12788;SDS011;6458;42.710;23.192;2023-04-12T10:44:40;1.20;;;1.10;;
12788;SDS011;6458;42.710;23.192;2023-04-12T10:47:06;1.70;;;1.70;;
12788;SDS011;6458;42.710;23.192;2023-04-12T10:49:34;1.47;;;1.37;;
12788;SDS011;6458;42.710;23.192;2023-04-12T10:52:10;1.33;;;1.23;;
12788;SDS011;6458;42.710;23.192;2023-04-12T10:54:39;1.20;;;1.20;;
12788;SDS011;6458;42.710;23.192;2023-04-12T10:57:06;1.33;;;1.27;;
12788;SDS011;6458;42.710;23.192;2023-04-12T10:59:51;2.50;;;1.40;;
12788;SDS011;6458;42.710;23.192;2023-04-12T11:02:20;1.80;;;1.30;;
12788;SDS011;6458;42.710;23.192;2023-04-12T11:05:05;1.20;;;1.20;;
12788;SDS011;6458;42.710;23.192;2023-04-12T11:07:40;1.00;;;1.00;;
12788;SDS011;6458;42.710;23.192;2023-04-12T11:10:15;1.40;;;1.40;;
12788;SDS011;6458;42.710;23.192;2023-04-12T11:12:47;1.30;;;1.30;;
12788;SDS011;6458;42.710;23.192;2023-04-12T11:15:14;1.20;;;1.20;;
12788;SDS011;6458;42.710;23.192;2023-04-12T11:17:41;1.70;;;1.07;;
12788;SDS011;6458;42.710;23.192;2023-04-12T11:20:09;1.30;;;1.20;;
12788;SDS011;6458;42.710;23.192;2023-04-12T11:22:36;1.20;;;1.20;;
12788;SDS011;6458;42.710;23.192;2023-04-12T11:25:03;1.30;;;1.30;;
12788;SDS011;6458;42.710;23.192;2023-04-12T11:27:32;1.00;;;1.00;;
12788;SDS011;6458;42.710;23.192;2023-04-12T11:29:59;1.40;;;1.27;;
12788;SDS011;6458;42.710;23.192;2023-04-12T11:32:26;1.23;;;1.23;;
12788;SDS011;6458;42.710;23.192;2023-04-12T11:34:54;2.13;;;1.30;;
12788;SDS011;6458;42.710;23.192;2023-04-12T11:37:21;1.10;;;1.10;;
12788;SDS011;6458;42.710;23.192;2023-04-12T11:39:49;1.80;;;1.30;;
12788;SDS011;6458;42.710;23.192;2023-04-12T11:42:17;1.50;;;1.40;;
12788;SDS011;6458;42.710;23.192;2023-04-12T11:44:46;1.20;;;1.20;;
12788;SDS011;6458;42.710;23.192;2023-04-12T11:47:15;2.20;;;1.23;;
12788;SDS011;6458;42.710;23.192;2023-04-12T11:49:42;1.20;;;1.20;;
12788;SDS011;6458;42.710;23.192;2023-04-12T11:52:09;1.67;;;1.27;;
12788;SDS011;6458;42.710;23.192;2023-04-12T11:54:36;1.37;;;1.10;;
12788;SDS011;6458;42.710;23.192;2023-04-12T11:57:03;1.63;;;1.53;;
12788;SDS011;6458;42.710;23.192;2023-04-12T11:59:30;1.10;;;1.10;;
12788;SDS011;6458;42.710;23.192;2023-04-12T12:01:58;1.30;;;1.30;;
12788;SDS011;6458;42.710;23.192;2023-04-12T12:04:26;1.30;;;1.30;;
12788;SDS011;6458;42.710;23.192;2023-04-12T12:06:54;1.40;;;1.40;;
12788;SDS011;6458;42.710;23.192;2023-04-12T12:09:20;1.40;;;1.40;;
12788;SDS011;6458;42.710;23.192;2023-04-12T12:11:47;1.00;;;1.00;;
12788;SDS011;6458;42.710;23.192;2023-04-12T12:14:17;1.20;;;1.20;;
12788;SDS011;6458;42.710;23.192;2023-04-12T12:16:44;1.40;;;1.40;;
12788;SDS011;6458;42.710;23.192;2023-04-12T12:19:25;1.00;;;1.00;;
12788;SDS011;6458;42.710;23.192;2023-04-12T12:21:52;2.03;;;1.30;;
12788;SDS011;6458;42.710;23.192;2023-04-12T12:24:19;1.40;;;1.40;;
12788;SDS011;6458;42.710;23.192;2023-04-12T12:26:48;1.10;;;1.10;;
12788;SDS011;6458;42.710;23.192;2023-04-12T12:29:17;1.27;;;1.17;;
12788;SDS011;6458;42.710;23.192;2023-04-12T12:31:45;1.80;;;1.20;;
12788;SDS011;6458;42.710;23.192;2023-04-12T12:34:13;1.37;;;1.30;;
12788;SDS011;6458;42.710;23.192;2023-04-12T12:36:52;1.63;;;1.53;;
12788;SDS011;6458;42.710;23.192;2023-04-12T12:39:19;1.37;;;1.37;;
12788;SDS011;6458;42.710;23.192;2023-04-12T12:41:51;1.77;;;1.37;;
12788;SDS011;6458;42.710;23.192;2023-04-12T12:44:18;1.33;;;1.33;;
12788;SDS011;6458;42.710;23.192;2023-04-12T12:46:45;1.87;;;1.30;;
12788;SDS011;6458;42.710;23.192;2023-04-12T12:49:12;1.40;;;1.40;;
12788;SDS011;6458;42.710;23.192;2023-04-12T12:51:38;1.47;;;1.47;;
12788;SDS011;6458;42.710;23.192;2023-04-12T12:54:06;1.57;;;1.33;;
12788;SDS011;6458;42.710;23.192;2023-04-12T12:56:33;1.30;;;1.30;;
12788;SDS011;6458;42.710;23.192;2023-04-12T12:59:01;1.10;;;1.10;;
12788;SDS011;6458;42.710;23.192;2023-04-12T13:01:27;1.40;;;1.40;;
12788;SDS011;6458;42.710;23.192;2023-04-12T13:03:54;1.30;;;1.30;;
12788;SDS011;6458;42.710;23.192;2023-04-12T13:06:22;1.90;;;1.60;;
12788;SDS011;6458;42.710;23.192;2023-04-12T13:08:51;2.13;;;1.43;;
12788;SDS011;6458;42.710;23.192;2023-04-12T13:11:20;1.50;;;1.40;;
12788;SDS011;6458;42.710;23.192;2023-04-12T13:13:47;1.43;;;1.30;;
12788;SDS011;6458;42.710;23.192;2023-04-12T13:16:14;1.40;;;1.30;;
12788;SDS011;6458;42.710;23.192;2023-04-12T13:18:40;1.40;;;1.30;;
12788;SDS011;6458;42.710;23.192;2023-04-12T13:21:07;2.00;;;1.50;;
12788;SDS011;6458;42.710;23.192;2023-04-12T13:23:34;1.47;;;1.40;;
12788;SDS011;6458;42.710;23.192;2023-04-12T13:26:00;1.40;;;1.30;;
12788;SDS011;6458;42.710;23.192;2023-04-12T13:28:28;6.30;;;5.70;;
12788;SDS011;6458;42.710;23.192;2023-04-12T13:30:55;1.93;;;1.87;;
12788;SDS011;6458;42.710;23.192;2023-04-12T13:33:22;2.17;;;2.07;;
12788;SDS011;6458;42.710;23.192;2023-04-12T13:35:49;1.60;;;1.43;;
12788;SDS011;6458;42.710;23.192;2023-04-12T13:38:15;1.43;;;1.40;;
12788;SDS011;6458;42.710;23.192;2023-04-12T13:40:42;1.57;;;1.50;;
12788;SDS011;6458;42.710;23.192;2023-04-12T13:43:08;1.40;;;1.30;;
12788;SDS011;6458;42.710;23.192;2023-04-12T13:45:37;1.20;;;1.20;;
12788;SDS011;6458;42.710;23.192;2023-04-12T13:48:03;1.67;;;1.57;;
12788;SDS011;6458;42.710;23.192;2023-04-12T13:50:30;2.60;;;1.50;;
12788;SDS011;6458;42.710;23.192;2023-04-12T13:52:57;2.30;;;1.43;;
12788;SDS011;6458;42.710;23.192;2023-04-12T13:55:23;1.53;;;1.53;;
12788;SDS011;6458;42.710;23.192;2023-04-12T13:57:50;1.20;;;1.20;;
12788;SDS011;6458;42.710;23.192;2023-04-12T14:00:17;1.90;;;1.30;;
12788;SDS011;6458;42.710;23.192;2023-04-12T14:02:45;1.30;;;1.30;;
12788;SDS011;6458;42.710;23.192;2023-04-12T14:05:12;1.47;;;1.47;;
12788;SDS011;6458;42.710;23.192;2023-04-12T14:07:39;1.60;;;1.50;;
12788;SDS011;6458;42.710;23.192;2023-04-12T14:10:06;1.40;;;1.40;;
12788;SDS011;6458;42.710;23.192;2023-04-12T14:12:33;1.30;;;1.30;;
12788;SDS011;6458;42.710;23.192;2023-04-12T14:14:59;1.73;;;1.67;;
12788;SDS011;6458;42.710;23.192;2023-04-12T14:17:26;1.30;;;1.30;;
12788;SDS011;6458;42.710;23.192;2023-04-12T14:19:57;1.30;;;1.30;;
12788;SDS011;6458;42.710;23.192;2023-04-12T14:22:24;1.40;;;1.40;;
12788;SDS011;6458;42.710;23.192;2023-04-12T14:24:51;1.30;;;1.30;;
12788;SDS011;6458;42.710;23.192;2023-04-12T14:27:17;1.40;;;1.40;;
12788;SDS011;6458;42.710;23.192;2023-04-12T14:29:44;1.67;;;1.43;;
12788;SDS011;6458;42.710;23.192;2023-04-12T14:32:10;1.50;;;1.50;;
12788;SDS011;6458;42.710;23.192;2023-04-12T14:34:37;1.63;;;1.53;;
12788;SDS011;6458;42.710;23.192;2023-04-12T14:37:05;1.30;;;1.30;;
12788;SDS011;6458;42.710;23.192;2023-04-12T14:39:32;1.30;;;1.20;;
12788;SDS011;6458;42.710;23.192;2023-04-12T14:41:59;1.13;;;1.13;;
12788;SDS011;6458;42.710;23.192;2023-04-12T14:44:27;1.47;;;1.47;;
12788;SDS011;6458;42.710;23.192;2023-04-12T14:46:53;1.53;;;1.43;;
12788;SDS011;6458;42.710;23.192;2023-04-12T14:49:20;1.50;;;1.50;;